createdAt,value
2019-03-15T00:01:40.201Z,5.40
2019-03-15T00:04:08.611Z,5.40
2019-03-15T00:09:07.997Z,5.40
2019-03-15T00:11:36.403Z,5.40
2019-03-15T00:14:05.228Z,5.40
2019-03-15T00:16:33.620Z,5.40
2019-03-15T00:19:02.036Z,5.40
2019-03-15T00:21:30.427Z,5.40
2019-03-15T00:23:58.825Z,5.40
2019-03-15T00:26:27.237Z,5.40
2019-03-15T00:28:55.641Z,5.40
2019-03-15T00:31:24.033Z,5.40
2019-03-15T00:33:52.432Z,5.50
2019-03-15T00:36:21.075Z,5.50
2019-03-15T00:38:49.544Z,5.50
2019-03-15T00:41:17.936Z,5.50
2019-03-15T00:43:49.185Z,5.50
2019-03-15T00:46:16.460Z,5.50
2019-03-15T00:48:44.869Z,5.50
2019-03-15T00:51:13.268Z,5.50
2019-03-15T00:53:41.670Z,5.50
2019-03-15T00:56:10.071Z,5.50
2019-03-15T00:58:38.584Z,5.50
2019-03-15T01:01:06.973Z,5.50
2019-03-15T01:03:35.399Z,5.50
2019-03-15T01:06:03.780Z,5.50
2019-03-15T01:08:32.185Z,5.50
2019-03-15T01:11:00.588Z,5.50
2019-03-15T01:13:28.992Z,5.50
2019-03-15T01:15:57.398Z,5.40
2019-03-15T01:18:25.788Z,5.40
2019-03-15T01:20:54.196Z,5.40
2019-03-15T01:23:22.583Z,5.40
2019-03-15T01:25:50.997Z,5.30
2019-03-15T01:28:19.387Z,5.40
2019-03-15T01:30:47.797Z,5.30
2019-03-15T01:33:16.196Z,5.30
2019-03-15T01:40:40.744Z,5.10
2019-03-15T01:43:09.218Z,5.00
2019-03-15T01:45:37.622Z,4.90
2019-03-15T01:48:06.029Z,4.90
2019-03-15T01:50:34.479Z,4.80
2019-03-15T01:53:02.901Z,4.80
2019-03-15T01:57:59.380Z,4.70
2019-03-15T02:06:09.871Z,4.60
2019-03-15T02:08:38.273Z,4.70
2019-03-15T02:13:34.751Z,4.80
2019-03-15T02:18:31.216Z,4.70
2019-03-15T02:20:59.629Z,4.60
2019-03-15T02:23:28.118Z,4.50
2019-03-15T02:25:56.499Z,4.50
2019-03-15T02:28:24.897Z,4.50
2019-03-15T02:30:53.301Z,4.40
2019-03-15T02:33:21.694Z,4.40
2019-03-15T02:35:50.108Z,4.40
2019-03-15T02:38:18.503Z,4.40
2019-03-15T02:40:46.958Z,4.30
2019-03-15T02:45:43.487Z,4.30
2019-03-15T02:48:13.061Z,4.30
2019-03-15T02:50:42.171Z,4.20
2019-03-15T02:53:10.600Z,4.20
2019-03-15T02:55:38.997Z,4.30
2019-03-15T02:58:07.437Z,4.30
2019-03-15T03:00:35.839Z,4.30
2019-03-15T03:03:04.241Z,4.20
2019-03-15T03:05:34.355Z,4.20
2019-03-15T03:08:02.767Z,4.20
2019-03-15T03:10:31.171Z,4.20
2019-03-15T03:12:59.638Z,4.20
2019-03-15T03:15:28.091Z,4.20
2019-03-15T03:17:56.476Z,4.20
2019-03-15T03:20:24.889Z,4.20
2019-03-15T03:22:53.295Z,4.20
2019-03-15T03:25:21.692Z,4.20
2019-03-15T03:27:50.105Z,4.20
2019-03-15T03:30:18.524Z,4.20
2019-03-15T03:32:46.990Z,4.20
2019-03-15T03:35:15.395Z,4.20
2019-03-15T03:40:13.612Z,4.20
2019-03-15T03:42:42.021Z,4.20
2019-03-15T03:45:10.480Z,4.20
2019-03-15T03:50:09.133Z,4.20
2019-03-15T03:52:37.529Z,4.30
2019-03-15T03:55:06.800Z,4.40
2019-03-15T03:57:36.510Z,4.40
2019-03-15T04:00:08.782Z,4.40
2019-03-15T04:02:37.189Z,4.40
2019-03-15T04:05:06.369Z,4.50
2019-03-15T04:07:34.774Z,4.50
2019-03-15T04:10:05.657Z,4.60
2019-03-15T04:12:34.393Z,4.60
2019-03-15T04:15:03.831Z,4.60
2019-03-15T04:17:32.274Z,4.70
2019-03-15T04:20:00.652Z,4.70
2019-03-15T04:22:29.131Z,4.70
2019-03-15T04:24:57.529Z,4.70
2019-03-15T04:27:25.967Z,4.70
2019-03-15T04:29:54.364Z,4.70
2019-03-15T04:32:22.770Z,4.70
2019-03-15T04:37:22.635Z,4.80
2019-03-15T04:39:49.477Z,4.80
2019-03-15T04:42:17.880Z,4.80
2019-03-15T04:44:46.285Z,4.80
2019-03-15T04:47:14.730Z,4.80
2019-03-15T04:49:43.168Z,4.80
2019-03-15T04:52:30.936Z,4.80
2019-03-15T04:54:59.337Z,4.90
2019-03-15T04:57:27.784Z,4.90
2019-03-15T04:59:56.172Z,4.80
2019-03-15T05:02:24.571Z,4.80
2019-03-15T05:04:52.970Z,4.80
2019-03-15T05:07:21.364Z,4.90
2019-03-15T05:12:17.873Z,4.90
2019-03-15T05:14:46.293Z,4.90
2019-03-15T05:17:14.738Z,4.90
2019-03-15T05:19:43.151Z,4.90
2019-03-15T05:22:11.583Z,4.90
2019-03-15T05:24:39.981Z,5.00
2019-03-15T05:27:08.414Z,5.00
2019-03-15T05:29:36.807Z,5.00
2019-03-15T05:32:05.232Z,5.00
2019-03-15T05:34:33.636Z,5.00
2019-03-15T05:37:02.053Z,5.00
2019-03-15T05:39:30.548Z,5.00
2019-03-15T05:41:58.932Z,5.10
2019-03-15T05:44:27.433Z,5.10
2019-03-15T05:46:56.192Z,5.10
2019-03-15T05:49:24.637Z,5.10
2019-03-15T05:51:53.066Z,5.20
2019-03-15T05:54:21.466Z,5.10
2019-03-15T05:56:49.858Z,5.20
2019-03-15T06:01:46.343Z,5.20
2019-03-15T06:04:14.745Z,5.20
2019-03-15T06:06:43.168Z,5.20
2019-03-15T06:09:11.610Z,5.20
2019-03-15T06:11:40.002Z,5.20
2019-03-15T06:14:08.409Z,5.20
2019-03-15T06:16:36.807Z,5.20
2019-03-15T06:19:05.259Z,5.20
2019-03-15T06:21:33.683Z,5.20
2019-03-15T06:24:02.089Z,5.20
2019-03-15T06:26:30.544Z,5.20
2019-03-15T06:29:01.500Z,5.20
2019-03-15T06:31:29.140Z,5.30
2019-03-15T06:33:57.551Z,5.30
2019-03-15T06:38:54.065Z,5.30
2019-03-15T06:41:22.460Z,5.40
2019-03-15T06:43:50.896Z,5.40
2019-03-15T06:46:19.288Z,5.40
2019-03-15T06:48:47.696Z,5.40
2019-03-15T06:51:16.096Z,5.40
2019-03-15T06:53:47.687Z,5.40
2019-03-15T06:58:42.767Z,5.50
2019-03-15T07:01:11.195Z,5.50
2019-03-15T07:06:07.672Z,5.60
2019-03-15T07:08:36.090Z,5.60
2019-03-15T07:13:32.592Z,5.70
2019-03-15T07:16:01.022Z,5.70
2019-03-15T07:18:29.429Z,5.80
2019-03-15T07:20:57.859Z,5.90
2019-03-15T07:23:26.256Z,6.00
2019-03-15T07:25:54.648Z,6.10
2019-03-15T07:30:51.193Z,6.10
2019-03-15T07:33:19.597Z,6.10
2019-03-15T07:35:48.044Z,6.10
2019-03-15T07:38:16.435Z,6.10
2019-03-15T07:40:45.848Z,6.10
2019-03-15T07:43:14.469Z,6.10
2019-03-15T07:45:42.915Z,6.10
2019-03-15T07:48:21.861Z,6.10
2019-03-15T07:50:41.543Z,6.10
2019-03-15T07:55:38.054Z,6.10
2019-03-15T08:00:36.541Z,6.10
2019-03-15T08:03:04.982Z,6.10
2019-03-15T08:05:33.372Z,6.10
2019-03-15T08:08:01.779Z,6.10
2019-03-15T08:10:30.172Z,6.10
2019-03-15T08:12:58.583Z,6.10
2019-03-15T08:15:27.001Z,6.10
2019-03-15T08:17:55.401Z,6.10
2019-03-15T08:22:51.924Z,6.10
2019-03-15T08:27:48.565Z,6.00
2019-03-15T08:30:18.103Z,5.90
2019-03-15T08:32:46.504Z,5.90
2019-03-15T08:37:43.183Z,5.90
2019-03-15T08:40:13.257Z,5.80
2019-03-15T08:42:41.650Z,5.70
2019-03-15T08:50:18.872Z,5.70
2019-03-15T08:52:47.333Z,5.80
2019-03-15T08:55:15.730Z,5.80
2019-03-15T08:57:44.139Z,5.80
2019-03-15T09:00:14.774Z,5.80
2019-03-15T09:02:43.176Z,5.80
2019-03-15T09:05:13.111Z,5.80
2019-03-15T09:07:41.501Z,5.80
2019-03-15T09:10:21.933Z,5.90
2019-03-15T09:12:41.669Z,5.90
2019-03-15T09:15:11.421Z,5.90
2019-03-15T09:17:39.921Z,5.90
2019-03-15T09:22:37.999Z,5.80
2019-03-15T09:25:19.420Z,5.80
2019-03-15T09:27:45.245Z,5.70
2019-03-15T09:32:46.067Z,5.80
2019-03-15T09:35:14.481Z,5.80
2019-03-15T09:37:42.888Z,5.80
2019-03-15T09:40:13.600Z,5.90
2019-03-15T09:45:15.067Z,5.90
2019-03-15T09:47:43.507Z,5.90
2019-03-15T09:50:22.900Z,5.90
2019-03-15T09:52:43.379Z,5.80
2019-03-15T09:55:13.055Z,5.80
2019-03-15T09:57:41.484Z,5.80
2019-03-15T10:00:17.865Z,5.90
2019-03-15T10:02:46.322Z,5.90
2019-03-15T10:05:14.797Z,5.90
2019-03-15T10:07:44.039Z,5.90
2019-03-15T10:10:19.137Z,6.00
2019-03-15T10:12:47.889Z,6.00
2019-03-15T10:15:17.265Z,6.10
2019-03-15T10:17:45.756Z,6.10
2019-03-15T10:25:16.030Z,6.20
2019-03-15T10:27:44.439Z,6.20
2019-03-15T10:30:18.926Z,6.20
2019-03-15T10:32:47.362Z,6.20
2019-03-15T10:35:15.766Z,6.20
2019-03-15T10:40:15.547Z,6.10
2019-03-15T10:42:43.951Z,6.10
2019-03-15T10:45:12.420Z,6.10
2019-03-15T10:47:42.390Z,6.10
2019-03-15T10:52:40.292Z,6.20
2019-03-15T10:55:09.428Z,6.20
2019-03-15T10:57:37.838Z,6.30
2019-03-15T11:00:15.124Z,6.30
2019-03-15T11:02:43.529Z,6.40
2019-03-15T11:05:11.993Z,6.50
2019-03-15T11:07:40.435Z,6.50
2019-03-15T11:10:10.373Z,6.70
2019-03-15T11:12:38.782Z,6.70
2019-03-15T11:15:09.780Z,6.80
2019-03-15T11:17:38.196Z,6.80
2019-03-15T11:20:09.037Z,6.80
2019-03-15T11:22:37.548Z,6.80
2019-03-15T11:25:10.691Z,6.90
2019-03-15T11:27:39.092Z,6.90
2019-03-15T11:30:10.130Z,7.00
2019-03-15T11:32:38.537Z,7.10
2019-03-15T11:35:08.477Z,7.10
2019-03-15T11:37:36.876Z,7.10
2019-03-15T11:40:18.555Z,7.10
2019-03-15T11:42:45.616Z,7.20
2019-03-15T11:45:14.159Z,7.20
2019-03-15T11:48:01.402Z,7.20
2019-03-15T11:52:41.567Z,7.30
2019-03-15T11:55:10.609Z,7.30
2019-03-15T11:57:39.018Z,7.30
2019-03-15T12:00:17.611Z,7.30
2019-03-15T12:02:46.011Z,7.40
2019-03-15T12:05:14.952Z,7.40
2019-03-15T12:07:43.531Z,7.40
2019-03-15T12:10:17.909Z,7.40
2019-03-15T12:12:46.330Z,7.50
2019-03-15T12:15:16.933Z,7.50
2019-03-15T12:17:45.344Z,7.60
2019-03-15T12:20:13.984Z,7.70
2019-03-15T12:22:42.390Z,7.70
2019-03-15T12:27:39.392Z,7.80
2019-03-15T12:30:12.685Z,7.80
2019-03-15T12:35:14.128Z,8.00
2019-03-15T12:37:42.603Z,8.00
2019-03-15T12:40:15.393Z,8.10
2019-03-15T12:42:43.826Z,8.10
2019-03-15T12:45:13.363Z,8.10
2019-03-15T12:47:41.770Z,8.20
2019-03-15T12:50:11.661Z,8.20
2019-03-15T12:52:47.126Z,8.30
2019-03-15T12:55:12.375Z,8.30
2019-03-15T13:02:38.912Z,8.50
2019-03-15T13:05:07.314Z,8.50
2019-03-15T13:07:35.743Z,8.50
2019-03-15T13:10:06.132Z,8.50
2019-03-15T13:12:34.522Z,8.50
2019-03-15T13:15:02.994Z,8.50
2019-03-15T13:17:50.732Z,8.50
2019-03-15T13:20:19.136Z,8.60
2019-03-15T13:22:47.577Z,8.60
2019-03-15T13:25:16.048Z,8.60
2019-03-15T13:27:44.440Z,8.60
2019-03-15T13:30:14.851Z,8.70
2019-03-15T13:32:43.293Z,8.80
2019-03-15T13:35:12.238Z,8.80
2019-03-15T13:37:42.783Z,8.80
2019-03-15T13:40:12.701Z,8.80
2019-03-15T13:42:41.106Z,8.90
2019-03-15T13:45:12.008Z,8.90
2019-03-15T13:47:40.407Z,8.80
2019-03-15T13:50:11.823Z,8.80
2019-03-15T13:52:40.212Z,8.90
2019-03-15T13:55:08.729Z,8.90
2019-03-15T13:57:37.124Z,8.90
2019-03-15T14:00:11.373Z,8.90
2019-03-15T14:02:39.803Z,8.90
2019-03-15T14:05:08.276Z,8.90
2019-03-15T14:07:36.714Z,8.90
2019-03-15T14:12:34.988Z,8.90
2019-03-15T14:15:04.233Z,8.90
2019-03-15T14:17:32.629Z,8.90
2019-03-15T14:22:29.151Z,8.90
2019-03-15T14:24:57.557Z,8.90
2019-03-15T14:27:36.988Z,8.90
2019-03-15T14:29:56.148Z,8.90
2019-03-15T14:32:24.537Z,8.90
2019-03-15T14:34:52.960Z,8.90
2019-03-15T14:37:21.490Z,8.90
2019-03-15T14:42:18.143Z,8.90
2019-03-15T14:44:46.680Z,9.00
2019-03-15T14:47:15.200Z,9.00
2019-03-15T14:49:43.621Z,9.00
2019-03-15T14:52:12.019Z,9.10
2019-03-15T14:54:42.370Z,9.10
2019-03-15T14:57:10.551Z,9.10
2019-03-15T14:59:38.954Z,9.00
2019-03-15T15:02:07.358Z,9.00
2019-03-15T15:04:35.752Z,9.00
2019-03-15T15:09:32.315Z,9.00
2019-03-15T15:14:28.781Z,8.90
2019-03-15T15:16:57.192Z,8.90
2019-03-15T15:19:25.584Z,8.90
2019-03-15T15:24:22.064Z,9.00
2019-03-15T15:26:50.475Z,9.00
2019-03-15T15:29:21.937Z,9.00
2019-03-15T15:31:49.014Z,9.00
2019-03-15T15:34:17.400Z,9.00
2019-03-15T15:36:45.823Z,9.00
2019-03-15T15:41:42.308Z,9.00
2019-03-15T15:44:10.715Z,9.00
2019-03-15T15:49:08.460Z,9.10
2019-03-15T15:51:43.458Z,9.10
2019-03-15T15:54:13.559Z,9.10
2019-03-15T15:56:41.986Z,9.10
2019-03-15T15:59:10.394Z,9.00
2019-03-15T16:01:38.817Z,9.10
2019-03-15T16:04:07.279Z,9.10
2019-03-15T16:09:05.115Z,9.00
2019-03-15T16:11:33.625Z,9.00
2019-03-15T16:14:02.068Z,9.00
2019-03-15T16:16:30.511Z,9.00
2019-03-15T16:18:58.938Z,9.00
2019-03-15T16:26:23.493Z,9.00
2019-03-15T16:28:51.938Z,9.00
2019-03-15T16:31:20.418Z,9.00
2019-03-15T16:33:48.824Z,9.00
2019-03-15T16:36:17.266Z,8.90
2019-03-15T16:41:13.773Z,9.00
2019-03-15T16:46:10.252Z,9.00
2019-03-15T16:48:38.869Z,9.00
2019-03-15T16:51:18.979Z,8.90
2019-03-15T16:53:38.004Z,8.90
2019-03-15T16:58:44.814Z,8.90
2019-03-15T17:03:32.781Z,8.90
2019-03-15T17:06:01.176Z,8.90
2019-03-15T17:08:30.626Z,8.90
2019-03-15T17:10:59.021Z,8.90
2019-03-15T17:13:27.424Z,8.90
2019-03-15T17:15:55.898Z,8.90
2019-03-15T17:18:24.384Z,8.90
2019-03-15T17:23:20.844Z,8.90
2019-03-15T17:25:49.283Z,8.90
2019-03-15T17:28:17.713Z,8.90
2019-03-15T17:30:46.100Z,8.90
2019-03-15T17:33:14.514Z,8.90
2019-03-15T17:35:42.952Z,8.90
2019-03-15T17:38:11.395Z,8.90
2019-03-15T17:40:39.791Z,8.90
2019-03-15T17:45:36.738Z,8.90
2019-03-15T17:48:05.149Z,8.90
2019-03-15T17:50:33.549Z,8.90
2019-03-15T17:55:30.030Z,8.90
2019-03-15T17:57:58.442Z,8.90
2019-03-15T18:03:20.563Z,8.90
2019-03-15T18:05:40.527Z,8.90
2019-03-15T18:08:08.966Z,8.90
2019-03-15T18:10:37.356Z,8.90
2019-03-15T18:13:05.834Z,8.90
2019-03-15T18:15:34.248Z,8.90
2019-03-15T18:18:02.694Z,8.90
2019-03-15T18:22:59.210Z,8.90
2019-03-15T18:25:27.665Z,8.90
2019-03-15T18:30:24.206Z,8.90
2019-03-15T18:35:32.902Z,8.90
2019-03-15T18:37:50.938Z,8.90
2019-03-15T18:40:20.272Z,8.90
2019-03-15T18:45:18.800Z,8.90
2019-03-15T18:50:23.393Z,8.90
2019-03-15T18:52:51.868Z,8.90
2019-03-15T18:55:20.252Z,8.90
2019-03-15T19:00:20.775Z,8.90
2019-03-15T19:05:17.343Z,8.90
2019-03-15T19:07:45.816Z,8.90
2019-03-15T19:12:42.760Z,8.90
2019-03-15T19:17:40.316Z,8.90
2019-03-15T19:20:11.822Z,8.90
2019-03-15T19:25:09.944Z,9.00
2019-03-15T19:27:38.353Z,9.00
2019-03-15T19:30:12.215Z,9.00
2019-03-15T19:32:40.649Z,9.00
2019-03-15T19:35:10.116Z,9.00
2019-03-15T19:37:38.517Z,9.00
2019-03-15T19:42:45.514Z,9.00
2019-03-15T19:45:16.285Z,9.00
2019-03-15T19:50:14.948Z,9.10
2019-03-15T19:52:43.364Z,9.10
2019-03-15T19:55:16.006Z,9.10
2019-03-15T19:57:44.413Z,9.10
2019-03-15T20:02:47.515Z,9.10
2019-03-15T20:05:15.983Z,9.10
2019-03-15T20:07:44.518Z,9.10
2019-03-15T20:10:16.480Z,9.10
2019-03-15T20:12:44.608Z,9.10
2019-03-15T20:15:16.712Z,9.10
2019-03-15T20:17:45.150Z,9.10
2019-03-15T20:20:15.093Z,9.10
2019-03-15T20:22:43.495Z,9.10
2019-03-15T20:25:14.122Z,9.20
2019-03-15T20:27:42.529Z,9.20
2019-03-15T20:30:22.096Z,9.20
2019-03-15T20:32:47.196Z,9.20
2019-03-15T20:35:15.671Z,9.20
2019-03-15T20:37:44.066Z,9.20
2019-03-15T20:40:14.784Z,9.20
2019-03-15T20:42:43.218Z,9.20
2019-03-15T20:45:20.329Z,9.20
2019-03-15T20:47:48.725Z,9.20
2019-03-15T20:50:17.161Z,9.20
2019-03-15T20:52:45.595Z,9.20
2019-03-15T20:55:13.997Z,9.20
2019-03-15T20:57:42.517Z,9.20
2019-03-15T21:02:40.394Z,9.20
2019-03-15T21:05:09.552Z,9.20
2019-03-15T21:07:38.115Z,9.20
2019-03-15T21:12:36.323Z,9.30
2019-03-15T21:15:08.121Z,9.30
2019-03-15T21:20:11.924Z,9.30
2019-03-15T21:22:42.251Z,9.30
2019-03-15T21:27:52.595Z,9.30
2019-03-15T21:30:17.930Z,9.30
2019-03-15T21:32:46.335Z,9.30
2019-03-15T21:35:14.745Z,9.30
2019-03-15T21:40:17.313Z,9.30
2019-03-15T21:42:45.700Z,9.30
2019-03-15T21:45:14.288Z,9.30
2019-03-15T21:47:42.755Z,9.30
2019-03-15T21:50:22.835Z,9.30
2019-03-15T21:52:51.352Z,9.30
2019-03-15T21:55:19.878Z,9.30
2019-03-15T21:57:50.122Z,9.30
2019-03-15T22:00:21.657Z,9.30
2019-03-15T22:02:50.492Z,9.30
2019-03-15T22:05:18.942Z,9.30
2019-03-15T22:07:47.321Z,9.30
2019-03-15T22:12:46.926Z,9.30
2019-03-15T22:15:15.409Z,9.20
2019-03-15T22:17:43.937Z,9.20
2019-03-15T22:20:16.591Z,9.30
2019-03-15T22:22:45.025Z,9.20
2019-03-15T22:25:13.426Z,9.20
2019-03-15T22:27:41.828Z,9.20
2019-03-15T22:30:12.577Z,9.20
2019-03-15T22:35:09.191Z,9.20
2019-03-15T22:40:08.653Z,9.20
2019-03-15T22:42:37.508Z,9.20
2019-03-15T22:45:08.361Z,9.20
2019-03-15T22:47:36.765Z,9.20
2019-03-15T22:50:07.107Z,9.20
2019-03-15T22:52:35.538Z,9.20
2019-03-15T22:55:04.489Z,9.20
2019-03-15T22:57:32.898Z,9.20
2019-03-15T23:00:01.316Z,9.10
2019-03-15T23:02:29.708Z,9.10
2019-03-15T23:04:58.120Z,9.10
2019-03-15T23:07:26.516Z,9.10
2019-03-15T23:09:54.930Z,9.10
2019-03-15T23:12:23.333Z,9.10
2019-03-15T23:14:51.736Z,9.10
2019-03-15T23:19:48.289Z,9.10
2019-03-15T23:22:16.718Z,9.10
2019-03-15T23:27:13.225Z,9.10
2019-03-15T23:29:41.638Z,9.10
2019-03-15T23:37:06.214Z,9.10
2019-03-15T23:39:35.501Z,9.10
2019-03-15T23:42:03.904Z,9.10
2019-03-15T23:44:32.304Z,9.10
2019-03-15T23:47:00.698Z,9.10
2019-03-15T23:49:29.109Z,9.20
2019-03-15T23:56:53.644Z,9.10
2019-03-15T23:59:22.077Z,9.10
